»·PEaware :: ANZ1 EGLL-KLAX

ANZ1 :: EGLL-KLAX

FLIGHT INFORMATION

Flight Status: Arrived
Operator:
Air New Zealand
More flights by this operator :: More flights under this callsign
Pilot: Matthew M. (2702)
Aircraft: BOEING 777-300
(B773)
More flights by this aircraft type
Origin: EGLL Heathrow
United Kingdom
Destination: KLAX Los Angeles Intl
United States
More flights between these airports :: More routes between these airports
Route: +KALLU YPG KP21A KU03W GCC KU72S MT KU510 BLOBB ZAINY BLD J107 HEC RIIVR2
File this flight plan on PilotEdge
Remarks:
Altitude:
(Current/Filed)
32,000ft
Speed:
(Current/Filed)
475kts
Departed: 01-Jun-16 04:30 PM
Arrived: 01-Jun-16 05:24 PM
Distance/Time
Traveled:
4726nm/0:54
Distance/Time
To Go:
Arrived

Flight Plot

Page will automatically refresh every two minutes.

Flight plan parsing failed; only flown route is shown


Map Options




Map Legend


Flown Route
Filed Route
Departure Airport
Arrival Airport
Navaid (VOR, NDB)
Fix

Horizontal Profiles

Position Reports

Time Latitude Longitude Heading Altitude Ground
Speed
01-Jun-16 16:27 37.969784 -112.496163 217 38190ft 486kts
01-Jun-16 16:28 37.878396 -112.580789 217 38190ft 487kts
01-Jun-16 16:29 37.750350 -112.698913 217 38175ft 487kts
01-Jun-16 16:30 37.659083 -112.782795 217 38157ft 487kts
01-Jun-16 16:31 37.549200 -112.883508 218 38145ft 487kts
01-Jun-16 16:32 37.439157 -112.984126 217 38140ft 487kts
01-Jun-16 16:33 37.331262 -113.082023 217 38094ft 487kts
01-Jun-16 16:34 37.229215 -113.193509 227 38054ft 484kts
01-Jun-16 16:35 37.134686 -113.313732 226 38016ft 485kts
01-Jun-16 16:36 37.038515 -113.432722 227 37965ft 484kts
01-Jun-16 16:37 36.942433 -113.551742 226 37949ft 485kts
01-Jun-16 16:38 36.846243 -113.670297 226 37933ft 485kts
01-Jun-16 16:39 36.749925 -113.787917 226 37936ft 485kts
01-Jun-16 16:40 36.653294 -113.905757 227 37944ft 484kts
01-Jun-16 16:41 36.566014 -114.033419 232 37927ft 483kts
01-Jun-16 16:42 36.479552 -114.161285 231 37921ft 481kts
01-Jun-16 16:43 36.393025 -114.288427 231 37914ft 481kts
01-Jun-16 16:44 36.306555 -114.414846 231 37906ft 481kts
01-Jun-16 16:45 36.219465 -114.541403 231 37895ft 481kts
01-Jun-16 16:46 36.132439 -114.667854 231 37851ft 481kts
01-Jun-16 16:47 36.044985 -114.793634 231 37859ft 481kts
01-Jun-16 16:48 35.956669 -114.918287 229 37871ft 481kts
01-Jun-16 16:49 35.866254 -115.040225 229 37893ft 480kts
01-Jun-16 16:50 35.776302 -115.161642 229 37890ft 480kts
01-Jun-16 16:51 35.686467 -115.283771 229 37905ft 480kts
01-Jun-16 16:52 35.596298 -115.405333 229 37896ft 479kts
01-Jun-16 16:53 35.506047 -115.526427 229 37890ft 480kts
01-Jun-16 16:54 35.415698 -115.647203 229 37889ft 479kts
01-Jun-16 16:55 35.325466 -115.767395 229 37892ft 479kts
01-Jun-16 16:56 35.234821 -115.887708 229 37883ft 479kts
01-Jun-16 16:57 35.144041 -116.007778 229 37885ft 480kts
01-Jun-16 16:58 35.053586 -116.127001 229 37886ft 475kts
01-Jun-16 16:59 34.963538 -116.245729 229 37896ft 476kts
01-Jun-16 17:00 34.873034 -116.363926 229 37887ft 476kts
01-Jun-16 17:01 34.781929 -116.478697 222 37092ft 464kts
01-Jun-16 17:02 34.677558 -116.575412 220 33740ft 478kts
01-Jun-16 17:03 34.574955 -116.671887 219 30501ft 487kts
01-Jun-16 17:04 34.468403 -116.771665 219 27941ft 477kts
01-Jun-16 17:05 34.368133 -116.865892 218 25636ft 467kts
01-Jun-16 17:06 34.267323 -116.960168 218 22457ft 446kts
01-Jun-16 17:07 34.169122 -117.051241 217 20631ft 425kts
01-Jun-16 17:08 34.088549 -117.148193 236 19375ft 398kts
01-Jun-16 17:09 34.045674 -117.264420 253 18950ft 387kts
01-Jun-16 17:10 34.034973 -117.390841 264 18950ft 372kts
01-Jun-16 17:11 34.030767 -117.508440 276 17966ft 346kts
01-Jun-16 17:12 34.038487 -117.628177 274 13760ft 364kts
01-Jun-16 17:13 34.046619 -117.744251 277 12634ft 337kts
01-Jun-16 17:14 34.045406 -117.849874 229 12046ft 316kts
01-Jun-16 17:15 33.979549 -117.913105 249 9664ft 303kts
01-Jun-16 17:16 33.973381 -118.017497 267 6159ft 320kts
01-Jun-16 17:17 33.965048 -118.112402 262 3935ft 294kts
01-Jun-16 17:18 33.956260 -118.198080 262 3104ft 222kts
01-Jun-16 17:19 33.949558 -118.263648 262 2052ft 171kts
01-Jun-16 17:20 33.944540 -118.312671 262 1296ft 135kts
01-Jun-16 17:21 33.939891 -118.358083 262 549ft 135kts
01-Jun-16 17:22 33.935914 -118.396652 262 140ft 38kts
01-Jun-16 17:23 33.936177 -118.404858 260 140ft 1kts
01-Jun-16 17:24 33.936072 -118.405658 260 140ft 0kts
01-Jun-16 17:25 33.936034 -118.405947 260 140ft 4kts
01-Jun-16 17:26 33.936079 -118.408539 296 140ft 15kts
01-Jun-16 17:27 33.938159 -118.411699 345 140ft 15kts
01-Jun-16 17:28 33.941789 -118.412257 355 140ft 1kts
01-Jun-16 17:29 33.941961 -118.412273 355 140ft 0kts
01-Jun-16 17:30 33.943433 -118.412482 352 140ft 7kts
01-Jun-16 17:31 33.944186 -118.412601 352 140ft 10kts
01-Jun-16 17:32 33.947137 -118.412228 68 140ft 11kts
01-Jun-16 17:33 33.946286 -118.409065 167 140ft 10kts
01-Jun-16 17:34 33.945489 -118.409545 256 140ft 4kts
01-Jun-16 17:35 33.945410 -118.410129 261 140ft 0kts
01-Jun-16 17:36 33.945410 -118.410130 261 140ft 0kts

Navigation Log

Ident Type
Flight plan parsing failed, navigation log unavailable